sensor_id;sensor_type;location;lat;lon;timestamp;pressure;altitude;pressure_sealevel;temperature;humidity
34586;BME280;20816;50.950;11.108;2023-09-30T00:02:19;99101.63;;;15.86;100.00
34586;BME280;20816;50.950;11.108;2023-09-30T00:04:46;99103.59;;;15.81;100.00
34586;BME280;20816;50.950;11.108;2023-09-30T00:07:13;99108.91;;;15.81;100.00
34586;BME280;20816;50.950;11.108;2023-09-30T00:09:40;99108.66;;;15.87;100.00
34586;BME280;20816;50.950;11.108;2023-09-30T00:12:07;99110.44;;;15.88;100.00
34586;BME280;20816;50.950;11.108;2023-09-30T00:14:33;99121.25;;;15.82;100.00
34586;BME280;20816;50.950;11.108;2023-09-30T00:17:00;99123.50;;;15.68;100.00
34586;BME280;20816;50.950;11.108;2023-09-30T00:19:27;99123.09;;;15.80;100.00
34586;BME280;20816;50.950;11.108;2023-09-30T00:21:53;99131.31;;;15.71;100.00
34586;BME280;20816;50.950;11.108;2023-09-30T00:24:20;99125.28;;;15.67;100.00
34586;BME280;20816;50.950;11.108;2023-09-30T00:26:47;99131.63;;;15.62;100.00
34586;BME280;20816;50.950;11.108;2023-09-30T00:29:13;99131.50;;;15.66;100.00
34586;BME280;20816;50.950;11.108;2023-09-30T00:31:40;99144.69;;;15.68;100.00
34586;BME280;20816;50.950;11.108;2023-09-30T00:34:07;99161.84;;;15.56;100.00
34586;BME280;20816;50.950;11.108;2023-09-30T00:36:35;99154.84;;;15.54;100.00
34586;BME280;20816;50.950;11.108;2023-09-30T00:39:01;99154.78;;;15.55;100.00
34586;BME280;20816;50.950;11.108;2023-09-30T00:41:29;99155.69;;;15.56;100.00
34586;BME280;20816;50.950;11.108;2023-09-30T00:43:55;99157.28;;;15.60;100.00
34586;BME280;20816;50.950;11.108;2023-09-30T00:46:35;99161.31;;;15.45;100.00
34586;BME280;20816;50.950;11.108;2023-09-30T00:49:04;99162.59;;;15.33;100.00
34586;BME280;20816;50.950;11.108;2023-09-30T00:51:31;99167.25;;;15.25;100.00
34586;BME280;20816;50.950;11.108;2023-09-30T00:54:00;99157.59;;;15.24;100.00
34586;BME280;20816;50.950;11.108;2023-09-30T00:56:29;99154.31;;;15.16;100.00
34586;BME280;20816;50.950;11.108;2023-09-30T00:58:56;99174.94;;;15.05;100.00
34586;BME280;20816;50.950;11.108;2023-09-30T01:01:23;99168.09;;;14.98;100.00
34586;BME280;20816;50.950;11.108;2023-09-30T01:03:51;99166.47;;;14.94;100.00
34586;BME280;20816;50.950;11.108;2023-09-30T01:06:18;99165.72;;;14.89;100.00
34586;BME280;20816;50.950;11.108;2023-09-30T01:08:45;99171.31;;;14.79;100.00
34586;BME280;20816;50.950;11.108;2023-09-30T01:11:12;99173.88;;;14.82;100.00
34586;BME280;20816;50.950;11.108;2023-09-30T01:13:40;99173.25;;;14.74;100.00
34586;BME280;20816;50.950;11.108;2023-09-30T01:16:09;99181.34;;;14.68;100.00
34586;BME280;20816;50.950;11.108;2023-09-30T01:18:37;99190.09;;;14.70;100.00
34586;BME280;20816;50.950;11.108;2023-09-30T01:21:06;99190.09;;;14.70;100.00
34586;BME280;20816;50.950;11.108;2023-09-30T01:23:33;99179.75;;;14.63;100.00
34586;BME280;20816;50.950;11.108;2023-09-30T01:26:13;99186.94;;;14.57;100.00
34586;BME280;20816;50.950;11.108;2023-09-30T01:28:40;99190.63;;;14.52;100.00
34586;BME280;20816;50.950;11.108;2023-09-30T01:31:07;99187.19;;;14.50;100.00
34586;BME280;20816;50.950;11.108;2023-09-30T01:33:34;99189.81;;;14.50;100.00
34586;BME280;20816;50.950;11.108;2023-09-30T01:36:01;99187.31;;;14.44;100.00
34586;BME280;20816;50.950;11.108;2023-09-30T01:38:28;99190.94;;;14.40;100.00
34586;BME280;20816;50.950;11.108;2023-09-30T01:40:55;99196.97;;;14.45;100.00
34586;BME280;20816;50.950;11.108;2023-09-30T01:43:25;99207.00;;;14.34;100.00
34586;BME280;20816;50.950;11.108;2023-09-30T01:45:52;99210.38;;;14.39;100.00
34586;BME280;20816;50.950;11.108;2023-09-30T01:48:19;99217.31;;;14.43;100.00
34586;BME280;20816;50.950;11.108;2023-09-30T01:50:46;99211.97;;;14.46;100.00
34586;BME280;20816;50.950;11.108;2023-09-30T01:53:14;99205.06;;;14.39;100.00
34586;BME280;20816;50.950;11.108;2023-09-30T01:55:41;99207.59;;;14.43;100.00
34586;BME280;20816;50.950;11.108;2023-09-30T01:58:08;99205.16;;;14.36;100.00
34586;BME280;20816;50.950;11.108;2023-09-30T02:00:38;99205.41;;;14.26;100.00
34586;BME280;20816;50.950;11.108;2023-09-30T02:03:04;99214.41;;;14.19;100.00
34586;BME280;20816;50.950;11.108;2023-09-30T02:05:32;99223.19;;;14.21;100.00
34586;BME280;20816;50.950;11.108;2023-09-30T02:07:59;99229.47;;;14.17;100.00
34586;BME280;20816;50.950;11.108;2023-09-30T02:10:26;99238.16;;;14.21;100.00
34586;BME280;20816;50.950;11.108;2023-09-30T02:12:55;99235.56;;;14.19;100.00
34586;BME280;20816;50.950;11.108;2023-09-30T02:15:22;99229.38;;;14.20;100.00
34586;BME280;20816;50.950;11.108;2023-09-30T02:17:48;99239.13;;;14.18;100.00
34586;BME280;20816;50.950;11.108;2023-09-30T02:20:16;99241.78;;;14.17;100.00
34586;BME280;20816;50.950;11.108;2023-09-30T02:22:45;99241.16;;;14.07;100.00
34586;BME280;20816;50.950;11.108;2023-09-30T02:25:13;99248.38;;;14.02;100.00
34586;BME280;20816;50.950;11.108;2023-09-30T02:27:43;99245.53;;;14.08;100.00
34586;BME280;20816;50.950;11.108;2023-09-30T02:30:11;99240.44;;;14.02;100.00
34586;BME280;20816;50.950;11.108;2023-09-30T02:32:40;99248.22;;;14.07;100.00
34586;BME280;20816;50.950;11.108;2023-09-30T02:35:09;99252.78;;;14.00;100.00
34586;BME280;20816;50.950;11.108;2023-09-30T02:37:39;99256.47;;;13.94;100.00
34586;BME280;20816;50.950;11.108;2023-09-30T02:40:07;99252.44;;;13.80;100.00
34586;BME280;20816;50.950;11.108;2023-09-30T02:42:40;99249.78;;;13.80;100.00
34586;BME280;20816;50.950;11.108;2023-09-30T02:45:08;99251.66;;;13.74;100.00
34586;BME280;20816;50.950;11.108;2023-09-30T02:47:36;99238.63;;;13.68;100.00
34586;BME280;20816;50.950;11.108;2023-09-30T02:50:05;99244.69;;;13.72;100.00
34586;BME280;20816;50.950;11.108;2023-09-30T02:52:32;99256.25;;;13.66;100.00
34586;BME280;20816;50.950;11.108;2023-09-30T02:54:59;99254.63;;;13.62;100.00
34586;BME280;20816;50.950;11.108;2023-09-30T02:57:26;99263.44;;;13.61;100.00
34586;BME280;20816;50.950;11.108;2023-09-30T02:59:54;99274.94;;;13.60;100.00
34586;BME280;20816;50.950;11.108;2023-09-30T03:02:21;99274.94;;;13.59;100.00
34586;BME280;20816;50.950;11.108;2023-09-30T03:04:48;99282.91;;;13.57;100.00
34586;BME280;20816;50.950;11.108;2023-09-30T03:07:18;99281.16;;;13.56;100.00
34586;BME280;20816;50.950;11.108;2023-09-30T03:09:45;99279.41;;;13.57;100.00
34586;BME280;20816;50.950;11.108;2023-09-30T03:12:13;99264.44;;;13.56;100.00
34586;BME280;20816;50.950;11.108;2023-09-30T03:14:40;99276.88;;;13.51;100.00
34586;BME280;20816;50.950;11.108;2023-09-30T03:17:07;99284.72;;;13.55;100.00
34586;BME280;20816;50.950;11.108;2023-09-30T03:19:38;99294.28;;;13.61;100.00
34586;BME280;20816;50.950;11.108;2023-09-30T03:22:05;99300.28;;;13.67;100.00
34586;BME280;20816;50.950;11.108;2023-09-30T03:24:39;99300.28;;;13.67;100.00
34586;BME280;20816;50.950;11.108;2023-09-30T03:27:07;99309.13;;;13.65;100.00
34586;BME280;20816;50.950;11.108;2023-09-30T03:29:37;99302.31;;;13.56;100.00
34586;BME280;20816;50.950;11.108;2023-09-30T03:32:07;99294.47;;;13.52;100.00
34586;BME280;20816;50.950;11.108;2023-09-30T03:34:34;99294.66;;;13.44;100.00
34586;BME280;20816;50.950;11.108;2023-09-30T03:37:04;99294.63;;;13.45;100.00
34586;BME280;20816;50.950;11.108;2023-09-30T03:39:33;99289.25;;;13.49;100.00
34586;BME280;20816;50.950;11.108;2023-09-30T03:42:00;99284.03;;;13.47;100.00
34586;BME280;20816;50.950;11.108;2023-09-30T03:44:27;99294.41;;;13.55;100.00
34586;BME280;20816;50.950;11.108;2023-09-30T03:46:54;99296.06;;;13.60;100.00
34586;BME280;20816;50.950;11.108;2023-09-30T03:49:21;99291.81;;;13.53;100.00
34586;BME280;20816;50.950;11.108;2023-09-30T03:51:48;99302.50;;;13.47;100.00
34586;BME280;20816;50.950;11.108;2023-09-30T03:54:17;99304.53;;;13.36;100.00
34586;BME280;20816;50.950;11.108;2023-09-30T03:56:47;99289.50;;;13.38;100.00
34586;BME280;20816;50.950;11.108;2023-09-30T03:59:14;99292.06;;;13.41;100.00
34586;BME280;20816;50.950;11.108;2023-09-30T04:01:40;99302.63;;;13.41;100.00
34586;BME280;20816;50.950;11.108;2023-09-30T04:04:10;99295.63;;;13.40;100.00
34586;BME280;20816;50.950;11.108;2023-09-30T04:06:37;99306.25;;;13.37;100.00
34586;BME280;20816;50.950;11.108;2023-09-30T04:09:05;99302.84;;;13.32;100.00
34586;BME280;20816;50.950;11.108;2023-09-30T04:11:38;99298.59;;;13.25;100.00
34586;BME280;20816;50.950;11.108;2023-09-30T04:14:06;99297.75;;;13.23;100.00
34586;BME280;20816;50.950;11.108;2023-09-30T04:16:35;99300.44;;;13.18;100.00
34586;BME280;20816;50.950;11.108;2023-09-30T04:19:04;99300.44;;;13.18;100.00
34586;BME280;20816;50.950;11.108;2023-09-30T04:21:31;99310.22;;;13.14;100.00
34586;BME280;20816;50.950;11.108;2023-09-30T04:24:01;99304.13;;;13.11;100.00
34586;BME280;20816;50.950;11.108;2023-09-30T04:26:28;99297.03;;;13.14;100.00
34586;BME280;20816;50.950;11.108;2023-09-30T04:28:54;99297.94;;;13.13;100.00
34586;BME280;20816;50.950;11.108;2023-09-30T04:31:22;99299.06;;;13.00;100.00
34586;BME280;20816;50.950;11.108;2023-09-30T04:33:50;99307.97;;;12.96;100.00
34586;BME280;20816;50.950;11.108;2023-09-30T04:36:18;99304.59;;;12.88;100.00
34586;BME280;20816;50.950;11.108;2023-09-30T04:38:45;99296.88;;;12.79;100.00
34586;BME280;20816;50.950;11.108;2023-09-30T04:41:12;99307.44;;;12.79;100.00
34586;BME280;20816;50.950;11.108;2023-09-30T04:43:39;99319.00;;;12.72;100.00
34586;BME280;20816;50.950;11.108;2023-09-30T04:46:06;99320.75;;;12.71;100.00
34586;BME280;20816;50.950;11.108;2023-09-30T04:48:35;99322.53;;;12.69;100.00
34586;BME280;20816;50.950;11.108;2023-09-30T04:51:06;99321.63;;;12.72;100.00
34586;BME280;20816;50.950;11.108;2023-09-30T04:53:33;99327.81;;;12.71;100.00
34586;BME280;20816;50.950;11.108;2023-09-30T04:56:00;99313.84;;;12.64;100.00
34586;BME280;20816;50.950;11.108;2023-09-30T04:58:28;99314.91;;;12.55;100.00
34586;BME280;20816;50.950;11.108;2023-09-30T05:00:56;99307.97;;;12.50;100.00
34586;BME280;20816;50.950;11.108;2023-09-30T05:03:23;99316.81;;;12.47;100.00
34586;BME280;20816;50.950;11.108;2023-09-30T05:05:52;99323.97;;;12.39;100.00
34586;BME280;20816;50.950;11.108;2023-09-30T05:08:24;99331.09;;;12.34;100.00
34586;BME280;20816;50.950;11.108;2023-09-30T05:10:51;99350.63;;;12.22;100.00
34586;BME280;20816;50.950;11.108;2023-09-30T05:13:22;99347.06;;;12.25;100.00
34586;BME280;20816;50.950;11.108;2023-09-30T05:15:51;99348.13;;;12.15;100.00
34586;BME280;20816;50.950;11.108;2023-09-30T05:18:18;99359.59;;;12.11;100.00
34586;BME280;20816;50.950;11.108;2023-09-30T05:20:45;99363.09;;;12.11;100.00
34586;BME280;20816;50.950;11.108;2023-09-30T05:23:12;99364.84;;;12.11;100.00
34586;BME280;20816;50.950;11.108;2023-09-30T05:25:39;99362.22;;;12.11;100.00
34586;BME280;20816;50.950;11.108;2023-09-30T05:28:06;99371.88;;;12.12;100.00
34586;BME280;20816;50.950;11.108;2023-09-30T05:30:33;99372.06;;;11.99;100.00
34586;BME280;20816;50.950;11.108;2023-09-30T05:33:00;99374.72;;;11.99;100.00
34586;BME280;20816;50.950;11.108;2023-09-30T05:35:27;99381.72;;;12.00;100.00
34586;BME280;20816;50.950;11.108;2023-09-30T05:37:55;99380.78;;;12.03;100.00
34586;BME280;20816;50.950;11.108;2023-09-30T05:40:22;99382.47;;;12.09;100.00
34586;BME280;20816;50.950;11.108;2023-09-30T05:42:53;99373.63;;;12.11;100.00
34586;BME280;20816;50.950;11.108;2023-09-30T05:45:22;99365.81;;;12.06;100.00
34586;BME280;20816;50.950;11.108;2023-09-30T05:47:50;99373.72;;;12.06;100.00
34586;BME280;20816;50.950;11.108;2023-09-30T05:50:19;99376.25;;;12.11;100.00
34586;BME280;20816;50.950;11.108;2023-09-30T05:52:55;99374.34;;;12.21;100.00
34586;BME280;20816;50.950;11.108;2023-09-30T05:55:23;99370.88;;;12.19;100.00
34586;BME280;20816;50.950;11.108;2023-09-30T05:57:52;99369.88;;;12.26;100.00
34586;BME280;20816;50.950;11.108;2023-09-30T06:00:21;99369.88;;;12.26;100.00
34586;BME280;20816;50.950;11.108;2023-09-30T06:02:58;99380.53;;;12.20;100.00
34586;BME280;20816;50.950;11.108;2023-09-30T06:05:26;99383.28;;;12.12;100.00
34586;BME280;20816;50.950;11.108;2023-09-30T06:07:53;99385.06;;;12.10;100.00
34586;BME280;20816;50.950;11.108;2023-09-30T06:10:21;99386.03;;;12.04;100.00
34586;BME280;20816;50.950;11.108;2023-09-30T06:12:52;99380.66;;;12.11;100.00
34586;BME280;20816;50.950;11.108;2023-09-30T06:15:24;99378.94;;;12.10;100.00
34586;BME280;20816;50.950;11.108;2023-09-30T06:17:55;99385.91;;;12.14;100.00
34586;BME280;20816;50.950;11.108;2023-09-30T06:20:23;99392.81;;;12.21;100.00
34586;BME280;20816;50.950;11.108;2023-09-30T06:22:54;99404.22;;;12.23;100.00
34586;BME280;20816;50.950;11.108;2023-09-30T06:25:20;99412.91;;;12.28;100.00
34586;BME280;20816;50.950;11.108;2023-09-30T06:27:50;99425.19;;;12.30;100.00
34586;BME280;20816;50.950;11.108;2023-09-30T06:30:17;99419.00;;;12.31;100.00
34586;BME280;20816;50.950;11.108;2023-09-30T06:32:47;99419.03;;;12.30;100.00
34586;BME280;20816;50.950;11.108;2023-09-30T06:35:14;99412.13;;;12.23;100.00
34586;BME280;20816;50.950;11.108;2023-09-30T06:37:41;99400.59;;;12.28;100.00
34586;BME280;20816;50.950;11.108;2023-09-30T06:40:10;99412.97;;;12.25;100.00
34586;BME280;20816;50.950;11.108;2023-09-30T06:42:39;99397.94;;;12.31;100.00
34586;BME280;20816;50.950;11.108;2023-09-30T06:45:07;99402.16;;;12.42;100.00
34586;BME280;20816;50.950;11.108;2023-09-30T06:47:35;99422.16;;;12.53;100.00
34586;BME280;20816;50.950;11.108;2023-09-30T06:50:08;99417.63;;;12.61;100.00
34586;BME280;20816;50.950;11.108;2023-09-30T06:52:37;99415.84;;;12.62;100.00
34586;BME280;20816;50.950;11.108;2023-09-30T06:55:05;99414.16;;;12.59;100.00
34586;BME280;20816;50.950;11.108;2023-09-30T06:57:34;99413.38;;;12.53;100.00
34586;BME280;20816;50.950;11.108;2023-09-30T07:00:04;99422.22;;;12.50;100.00
34586;BME280;20816;50.950;11.108;2023-09-30T07:02:35;99425.66;;;12.54;100.00
34586;BME280;20816;50.950;11.108;2023-09-30T07:05:07;99424.69;;;12.59;100.00
34586;BME280;20816;50.950;11.108;2023-09-30T07:07:34;99423.50;;;12.79;100.00
34586;BME280;20816;50.950;11.108;2023-09-30T07:10:01;99423.28;;;12.91;100.00
34586;BME280;20816;50.950;11.108;2023-09-30T07:12:27;99428.38;;;13.00;100.00
34586;BME280;20816;50.950;11.108;2023-09-30T07:14:54;99443.13;;;13.10;100.00
34586;BME280;20816;50.950;11.108;2023-09-30T07:17:21;99445.66;;;13.20;100.00
34586;BME280;20816;50.950;11.108;2023-09-30T07:19:48;99456.06;;;13.29;100.00
34586;BME280;20816;50.950;11.108;2023-09-30T07:22:15;99459.41;;;13.37;100.00
34586;BME280;20816;50.950;11.108;2023-09-30T07:24:49;99464.69;;;13.37;100.00
34586;BME280;20816;50.950;11.108;2023-09-30T07:27:16;99465.53;;;13.39;100.00
34586;BME280;20816;50.950;11.108;2023-09-30T07:29:53;99475.94;;;13.46;100.00
34586;BME280;20816;50.950;11.108;2023-09-30T07:32:20;99473.28;;;13.48;100.00
34586;BME280;20816;50.950;11.108;2023-09-30T07:34:50;99469.91;;;13.40;100.00
34586;BME280;20816;50.950;11.108;2023-09-30T07:37:19;99464.69;;;13.37;100.00
34586;BME280;20816;50.950;11.108;2023-09-30T07:39:47;99460.66;;;13.62;100.00
34586;BME280;20816;50.950;11.108;2023-09-30T07:42:13;99451.81;;;14.44;100.00
34586;BME280;20816;50.950;11.108;2023-09-30T07:44:41;99463.34;;;14.78;100.00
34586;BME280;20816;50.950;11.108;2023-09-30T07:47:07;99461.00;;;15.02;99.25
34586;BME280;20816;50.950;11.108;2023-09-30T07:49:35;99469.34;;;15.19;97.67
34586;BME280;20816;50.950;11.108;2023-09-30T07:52:01;99474.00;;;15.43;96.62
34586;BME280;20816;50.950;11.108;2023-09-30T07:54:28;99473.50;;;15.93;94.49
34586;BME280;20816;50.950;11.108;2023-09-30T07:56:57;99474.41;;;16.21;90.93
34586;BME280;20816;50.950;11.108;2023-09-30T07:59:26;99473.03;;;16.36;90.17
34586;BME280;20816;50.950;11.108;2023-09-30T08:01:52;99472.03;;;16.70;88.63
34586;BME280;20816;50.950;11.108;2023-09-30T08:04:19;99485.38;;;16.93;87.18
34586;BME280;20816;50.950;11.108;2023-09-30T08:06:46;99486.59;;;17.36;84.65
34586;BME280;20816;50.950;11.108;2023-09-30T08:09:13;99485.34;;;17.46;83.75
34586;BME280;20816;50.950;11.108;2023-09-30T08:11:40;99477.44;;;17.18;84.17
34586;BME280;20816;50.950;11.108;2023-09-30T08:14:07;99486.13;;;16.72;86.12
34586;BME280;20816;50.950;11.108;2023-09-30T08:16:36;99501.47;;;16.61;86.95
34586;BME280;20816;50.950;11.108;2023-09-30T08:19:04;99497.00;;;16.63;87.32
34586;BME280;20816;50.950;11.108;2023-09-30T08:21:31;99495.88;;;16.71;87.71
34586;BME280;20816;50.950;11.108;2023-09-30T08:23:58;99493.19;;;17.24;84.60
34586;BME280;20816;50.950;11.108;2023-09-30T08:26:25;99499.31;;;18.01;82.07
34586;BME280;20816;50.950;11.108;2023-09-30T08:28:52;99491.19;;;18.28;79.55
34586;BME280;20816;50.950;11.108;2023-09-30T08:31:18;99495.63;;;17.55;80.79
34586;BME280;20816;50.950;11.108;2023-09-30T08:33:46;99487.38;;;17.88;80.67
34586;BME280;20816;50.950;11.108;2023-09-30T08:36:13;99497.09;;;18.12;79.49
34586;BME280;20816;50.950;11.108;2023-09-30T08:38:41;99492.53;;;18.16;77.61
34586;BME280;20816;50.950;11.108;2023-09-30T08:41:08;99496.97;;;18.39;77.75
34586;BME280;20816;50.950;11.108;2023-09-30T08:43:38;99498.19;;;18.75;76.20
34586;BME280;20816;50.950;11.108;2023-09-30T08:46:07;99490.06;;;18.79;75.85
34586;BME280;20816;50.950;11.108;2023-09-30T08:48:34;99489.75;;;19.49;74.23
34586;BME280;20816;50.950;11.108;2023-09-30T08:51:01;99485.63;;;19.82;72.67
34586;BME280;20816;50.950;11.108;2023-09-30T08:53:29;99496.63;;;19.34;72.63
34586;BME280;20816;50.950;11.108;2023-09-30T08:55:56;99493.63;;;19.82;70.72
34586;BME280;20816;50.950;11.108;2023-09-30T08:58:28;99484.84;;;20.18;69.66
34586;BME280;20816;50.950;11.108;2023-09-30T09:00:55;99478.63;;;19.99;69.75
34586;BME280;20816;50.950;11.108;2023-09-30T09:03:23;99492.72;;;19.63;70.25
34586;BME280;20816;50.950;11.108;2023-09-30T09:05:56;99484.91;;;19.58;71.48
34586;BME280;20816;50.950;11.108;2023-09-30T09:08:26;99472.34;;;20.19;69.31
34586;BME280;20816;50.950;11.108;2023-09-30T09:10:55;99478.28;;;19.67;69.54
34586;BME280;20816;50.950;11.108;2023-09-30T09:13:26;99482.41;;;20.70;67.93
34586;BME280;20816;50.950;11.108;2023-09-30T09:16:07;99479.66;;;21.42;65.79
34586;BME280;20816;50.950;11.108;2023-09-30T09:18:35;99488.91;;;21.18;64.74
34586;BME280;20816;50.950;11.108;2023-09-30T09:21:09;99491.13;;;19.98;68.46
34586;BME280;20816;50.950;11.108;2023-09-30T09:23:41;99489.16;;;20.02;69.04
34586;BME280;20816;50.950;11.108;2023-09-30T09:26:09;99485.69;;;20.75;66.08
34586;BME280;20816;50.950;11.108;2023-09-30T09:28:37;99487.63;;;21.08;65.40
34586;BME280;20816;50.950;11.108;2023-09-30T09:31:28;99476.16;;;21.23;63.81
34586;BME280;20816;50.950;11.108;2023-09-30T09:33:55;99486.94;;;21.04;64.02
34586;BME280;20816;50.950;11.108;2023-09-30T09:36:43;99488.94;;;20.99;63.16
34586;BME280;20816;50.950;11.108;2023-09-30T09:39:11;99484.63;;;21.66;61.62
34586;BME280;20816;50.950;11.108;2023-09-30T09:41:52;99489.31;;;21.62;62.27
34586;BME280;20816;50.950;11.108;2023-09-30T09:44:20;99487.56;;;21.61;61.89
34586;BME280;20816;50.950;11.108;2023-09-30T09:46:48;99479.97;;;21.36;63.14
34586;BME280;20816;50.950;11.108;2023-09-30T09:49:17;99481.66;;;21.20;62.87
34586;BME280;20816;50.950;11.108;2023-09-30T09:51:46;99480.56;;;21.07;63.58
34586;BME280;20816;50.950;11.108;2023-09-30T09:54:14;99481.81;;;21.69;62.59
34586;BME280;20816;50.950;11.108;2023-09-30T09:56:45;99486.97;;;21.39;63.59
34586;BME280;20816;50.950;11.108;2023-09-30T09:59:12;99487.16;;;22.02;61.68
34586;BME280;20816;50.950;11.108;2023-09-30T10:01:41;99484.88;;;22.12;60.56
34586;BME280;20816;50.950;11.108;2023-09-30T10:04:12;99468.75;;;22.45;60.31
34586;BME280;20816;50.950;11.108;2023-09-30T10:06:44;99473.00;;;22.33;61.07
34586;BME280;20816;50.950;11.108;2023-09-30T10:09:17;99473.44;;;22.41;61.37
34586;BME280;20816;50.950;11.108;2023-09-30T10:11:45;99478.16;;;21.87;62.62
34586;BME280;20816;50.950;11.108;2023-09-30T10:14:30;99487.59;;;20.90;64.08
34586;BME280;20816;50.950;11.108;2023-09-30T10:16:59;99480.38;;;20.37;65.38
34586;BME280;20816;50.950;11.108;2023-09-30T10:19:26;99478.03;;;20.86;65.92
34586;BME280;20816;50.950;11.108;2023-09-30T10:24:42;99475.75;;;20.03;65.99
34586;BME280;20816;50.950;11.108;2023-09-30T10:29:54;99469.81;;;20.72;64.72
34586;BME280;20816;50.950;11.108;2023-09-30T10:32:23;99480.81;;;21.87;61.63
34586;BME280;20816;50.950;11.108;2023-09-30T10:34:49;99472.81;;;21.87;60.63
34586;BME280;20816;50.950;11.108;2023-09-30T10:37:23;99476.78;;;21.96;60.05
34586;BME280;20816;50.950;11.108;2023-09-30T10:39:56;99471.72;;;21.74;60.96
34586;BME280;20816;50.950;11.108;2023-09-30T10:42:48;99476.13;;;20.88;62.02
34586;BME280;20816;50.950;11.108;2023-09-30T10:51:13;99478.06;;;21.89;59.86
34586;BME280;20816;50.950;11.108;2023-09-30T10:53:43;99469.09;;;22.38;57.83
34586;BME280;20816;50.950;11.108;2023-09-30T10:56:10;99460.91;;;23.03;56.74
34586;BME280;20816;50.950;11.108;2023-09-30T10:58:50;99455.34;;;23.22;56.66
34586;BME280;20816;50.950;11.108;2023-09-30T11:03:47;99447.50;;;23.03;57.86
34586;BME280;20816;50.950;11.108;2023-09-30T11:06:20;99454.13;;;23.12;56.97
34586;BME280;20816;50.950;11.108;2023-09-30T11:08:54;99453.38;;;22.17;58.88
34586;BME280;20816;50.950;11.108;2023-09-30T11:11:37;99434.63;;;22.94;58.40
34586;BME280;20816;50.950;11.108;2023-09-30T11:14:26;99441.75;;;22.63;58.00
34586;BME280;20816;50.950;11.108;2023-09-30T11:16:57;99435.09;;;22.71;56.65
34586;BME280;20816;50.950;11.108;2023-09-30T11:19:25;99430.38;;;22.44;58.35
34586;BME280;20816;50.950;11.108;2023-09-30T11:21:54;99424.56;;;22.52;57.13
34586;BME280;20816;50.950;11.108;2023-09-30T11:24:25;99415.34;;;22.26;57.74
34586;BME280;20816;50.950;11.108;2023-09-30T11:26:55;99415.50;;;22.23;59.06
34586;BME280;20816;50.950;11.108;2023-09-30T11:29:22;99417.06;;;22.27;58.44
34586;BME280;20816;50.950;11.108;2023-09-30T11:31:49;99418.25;;;23.29;56.59
34586;BME280;20816;50.950;11.108;2023-09-30T11:34:18;99418.91;;;22.88;57.03
34586;BME280;20816;50.950;11.108;2023-09-30T11:36:51;99419.41;;;22.79;56.85
34586;BME280;20816;50.950;11.108;2023-09-30T11:39:26;99433.94;;;21.80;57.98
34586;BME280;20816;50.950;11.108;2023-09-30T11:41:54;99442.94;;;21.62;58.57
34586;BME280;20816;50.950;11.108;2023-09-30T11:44:25;99434.25;;;21.74;59.52
34586;BME280;20816;50.950;11.108;2023-09-30T11:46:53;99409.09;;;22.73;56.92
34586;BME280;20816;50.950;11.108;2023-09-30T11:49:29;99405.19;;;22.62;58.14
34586;BME280;20816;50.950;11.108;2023-09-30T11:51:57;99406.41;;;22.73;58.57
34586;BME280;20816;50.950;11.108;2023-09-30T11:54:32;99416.88;;;23.07;56.92
34586;BME280;20816;50.950;11.108;2023-09-30T11:57:00;99408.56;;;23.70;55.27
34586;BME280;20816;50.950;11.108;2023-09-30T11:59:27;99416.59;;;23.85;54.38
34586;BME280;20816;50.950;11.108;2023-09-30T12:01:54;99408.16;;;23.76;54.87
34586;BME280;20816;50.950;11.108;2023-09-30T12:04:39;99403.63;;;22.90;55.25
34586;BME280;20816;50.950;11.108;2023-09-30T12:07:06;99402.56;;;23.51;55.15
34586;BME280;20816;50.950;11.108;2023-09-30T12:09:35;99395.09;;;23.56;53.89
34586;BME280;20816;50.950;11.108;2023-09-30T12:12:04;99399.25;;;23.17;54.49
34586;BME280;20816;50.950;11.108;2023-09-30T12:14:34;99405.56;;;22.56;55.57
34586;BME280;20816;50.950;11.108;2023-09-30T12:17:02;99402.50;;;22.62;55.41
34586;BME280;20816;50.950;11.108;2023-09-30T12:19:29;99406.34;;;22.58;55.41
34586;BME280;20816;50.950;11.108;2023-09-30T12:21:56;99403.69;;;22.27;57.04
34586;BME280;20816;50.950;11.108;2023-09-30T12:24:22;99398.00;;;22.33;55.95
34586;BME280;20816;50.950;11.108;2023-09-30T12:26:51;99396.50;;;22.43;56.71
34586;BME280;20816;50.950;11.108;2023-09-30T12:29:20;99388.41;;;22.75;56.13
34586;BME280;20816;50.950;11.108;2023-09-30T12:31:50;99383.22;;;22.10;54.66
34586;BME280;20816;50.950;11.108;2023-09-30T12:34:19;99379.38;;;22.30;54.69
34586;BME280;20816;50.950;11.108;2023-09-30T12:36:46;99371.69;;;22.39;55.34
34586;BME280;20816;50.950;11.108;2023-09-30T12:39:14;99379.47;;;22.28;55.39
34586;BME280;20816;50.950;11.108;2023-09-30T12:41:44;99379.34;;;22.61;54.73
34586;BME280;20816;50.950;11.108;2023-09-30T12:44:12;99374.75;;;22.63;54.91
34586;BME280;20816;50.950;11.108;2023-09-30T12:46:39;99365.28;;;22.88;54.76
34586;BME280;20816;50.950;11.108;2023-09-30T12:49:07;99363.81;;;22.98;54.84
34586;BME280;20816;50.950;11.108;2023-09-30T12:51:34;99367.00;;;22.59;55.43
34586;BME280;20816;50.950;11.108;2023-09-30T12:54:02;99368.69;;;22.30;55.64
34586;BME280;20816;50.950;11.108;2023-09-30T12:56:29;99367.09;;;22.57;55.14
34586;BME280;20816;50.950;11.108;2023-09-30T12:58:56;99359.78;;;22.75;54.21
34586;BME280;20816;50.950;11.108;2023-09-30T13:01:24;99365.63;;;22.52;54.99
34586;BME280;20816;50.950;11.108;2023-09-30T13:03:51;99373.28;;;21.63;56.36
34586;BME280;20816;50.950;11.108;2023-09-30T13:06:19;99371.41;;;21.15;56.79